createdAt,value
2022-09-07T00:03:59.729Z,4.50
2022-09-07T00:09:08.457Z,5.50
2022-09-07T00:14:16.492Z,5.40
2022-09-07T00:19:24.094Z,6.10
2022-09-07T00:24:31.749Z,5.10
2022-09-07T00:29:39.765Z,7.00
2022-09-07T00:34:47.299Z,4.60
2022-09-07T00:39:54.998Z,4.10
2022-09-07T00:45:10.657Z,8.90
2022-09-07T00:50:25.373Z,6.40
2022-09-07T00:55:35.349Z,5.50
2022-09-07T01:00:46.102Z,6.00
2022-09-07T01:06:00.027Z,4.10
2022-09-07T01:11:07.704Z,3.70
2022-09-07T01:16:25.175Z,5.20
2022-09-07T01:21:45.227Z,4.70
2022-09-07T01:27:27.461Z,4.90
2022-09-07T01:32:45.346Z,5.20
2022-09-07T01:38:04.595Z,5.10
2022-09-07T01:43:15.525Z,5.70
2022-09-07T01:48:26.147Z,5.40
2022-09-07T01:53:37.799Z,4.40
2022-09-07T01:58:52.681Z,5.50
2022-09-07T02:04:06.682Z,5.10
2022-09-07T02:09:22.165Z,5.80
2022-09-07T02:14:52.382Z,4.90
2022-09-07T02:20:05.249Z,6.10
2022-09-07T02:25:19.092Z,5.60
2022-09-07T02:30:26.776Z,5.50
2022-09-07T02:35:35.455Z,5.70
2022-09-07T02:40:43.139Z,7.00
2022-09-07T02:46:09.041Z,6.00
2022-09-07T02:51:23.499Z,4.90
2022-09-07T02:56:46.458Z,7.70
2022-09-07T03:02:03.431Z,8.90
2022-09-07T03:07:15.008Z,7.10
2022-09-07T03:12:22.337Z,8.00
2022-09-07T03:17:29.376Z,6.50
2022-09-07T03:27:42.366Z,7.30
2022-09-07T03:32:49.238Z,7.00
2022-09-07T03:37:56.013Z,6.00
2022-09-07T03:43:02.996Z,7.70
2022-09-07T03:53:35.947Z,8.30
2022-09-07T03:58:43.451Z,5.70
2022-09-07T04:03:51.111Z,7.80
2022-09-07T04:08:58.019Z,6.70
2022-09-07T04:14:05.721Z,6.30
2022-09-07T04:19:13.787Z,7.50
2022-09-07T04:24:21.094Z,5.80
2022-09-07T04:29:28.358Z,7.70
2022-09-07T04:34:35.801Z,7.50
2022-09-07T04:39:42.737Z,7.40
2022-09-07T04:44:52.238Z,8.40
2022-09-07T04:50:00.165Z,6.20
2022-09-07T04:55:08.293Z,6.70
2022-09-07T05:00:16.680Z,8.50
2022-09-07T05:05:24.075Z,8.30
2022-09-07T05:10:31.439Z,11.90
2022-09-07T05:15:39.113Z,9.20
2022-09-07T05:20:46.241Z,9.10
2022-09-07T05:31:19.992Z,11.80
2022-09-07T05:36:28.502Z,8.10
2022-09-07T05:41:35.623Z,14.00
2022-09-07T05:46:42.826Z,14.40
2022-09-07T05:51:49.734Z,10.50
2022-09-07T05:56:57.022Z,11.70
2022-09-07T06:02:04.183Z,13.90
2022-09-07T06:07:22.781Z,12.00
2022-09-07T06:12:31.228Z,10.00
2022-09-07T06:17:38.215Z,14.40
2022-09-07T06:27:54.215Z,14.30
2022-09-07T06:33:01.430Z,11.90
2022-09-07T06:38:08.357Z,14.90
2022-09-07T06:48:20.798Z,15.00
2022-09-07T06:53:34.110Z,14.90
2022-09-07T06:58:42.509Z,17.60
2022-09-07T07:03:50.038Z,11.90
2022-09-07T07:08:57.288Z,10.10
2022-09-07T07:14:04.581Z,11.70
2022-09-07T07:19:11.840Z,16.40
2022-09-07T07:24:18.799Z,14.90
2022-09-07T07:29:28.285Z,9.90
2022-09-07T07:34:35.410Z,15.10
2022-09-07T07:50:36.359Z,10.00
2022-09-07T08:00:54.755Z,10.50
2022-09-07T08:06:08.404Z,12.00
2022-09-07T08:11:17.897Z,12.70
2022-09-07T08:16:25.131Z,9.40
2022-09-07T08:21:32.374Z,10.80
2022-09-07T08:26:39.406Z,11.30
2022-09-07T08:31:47.387Z,12.10
2022-09-07T08:36:55.090Z,12.90
2022-09-07T08:42:26.550Z,13.90
2022-09-07T08:47:39.283Z,12.80
2022-09-07T08:52:52.389Z,10.20
2022-09-07T08:58:18.121Z,13.00
2022-09-07T09:03:34.889Z,14.90
2022-09-07T09:09:14.871Z,11.70
2022-09-07T09:20:01.793Z,15.60
2022-09-07T09:25:19.552Z,14.90
2022-09-07T09:30:28.246Z,15.30
2022-09-07T09:35:37.651Z,15.00
2022-09-07T09:40:54.710Z,17.00
2022-09-07T09:46:17.251Z,15.10
2022-09-07T09:56:53.406Z,12.30
2022-09-07T10:07:32.041Z,13.00
2022-09-07T10:12:41.267Z,11.80
2022-09-07T10:17:52.353Z,10.50
2022-09-07T10:23:01.969Z,9.00
2022-09-07T10:28:19.256Z,10.10
2022-09-07T10:33:36.282Z,8.90
2022-09-07T10:38:48.595Z,9.00
2022-09-07T10:43:56.293Z,9.80
2022-09-07T10:49:20.821Z,12.10
2022-09-07T10:54:36.660Z,10.40
2022-09-07T11:00:10.689Z,12.40
2022-09-07T11:05:33.662Z,10.50
2022-09-07T11:10:49.274Z,9.50
2022-09-07T11:16:02.036Z,8.70
2022-09-07T11:21:56.165Z,9.70
2022-09-07T11:26:50.772Z,9.00
2022-09-07T11:32:00.930Z,10.30
2022-09-07T11:37:12.297Z,9.20
2022-09-07T11:47:55.406Z,9.80
2022-09-07T11:53:07.929Z,8.90
2022-09-07T11:58:35.147Z,10.40
2022-09-07T12:04:03.379Z,8.90
2022-09-07T12:09:28.009Z,7.80
2022-09-07T12:14:44.544Z,9.00
2022-09-07T12:20:19.353Z,6.50
2022-09-07T12:25:27.080Z,10.60
2022-09-07T12:31:04.680Z,21.50
2022-09-07T12:36:50.803Z,11.20
2022-09-07T12:42:38.420Z,7.30
2022-09-07T12:47:56.894Z,9.30
2022-09-07T12:53:31.894Z,7.10
2022-09-07T12:58:46.335Z,9.10
2022-09-07T13:04:16.275Z,7.90
2022-09-07T13:09:37.636Z,10.00
2022-09-07T13:14:51.309Z,8.10
2022-09-07T13:20:20.320Z,8.00
2022-09-07T13:25:46.708Z,9.20
2022-09-07T13:31:05.939Z,12.00
2022-09-07T13:36:25.855Z,8.30
2022-09-07T13:41:38.781Z,8.70
2022-09-07T13:46:52.804Z,9.80
2022-09-07T13:52:06.639Z,7.90
2022-09-07T13:57:23.679Z,8.50
2022-09-07T14:02:33.963Z,8.50
2022-09-07T14:07:47.290Z,7.80
2022-09-07T14:12:55.919Z,7.90
2022-09-07T14:18:12.144Z,8.30
2022-09-07T14:28:39.704Z,8.50
2022-09-07T14:33:51.805Z,8.30
2022-09-07T14:39:04.255Z,8.50
2022-09-07T14:44:30.200Z,7.70
2022-09-07T14:49:37.551Z,8.20
2022-09-07T14:54:44.426Z,9.20
2022-09-07T14:59:54.001Z,9.50
2022-09-07T15:05:32.932Z,7.10
2022-09-07T15:10:42.124Z,9.20
2022-09-07T15:16:00.152Z,10.90
2022-09-07T15:21:09.013Z,7.40
2022-09-07T15:31:54.345Z,9.20
2022-09-07T15:38:00.573Z,9.70
2022-09-07T15:47:57.972Z,9.70
2022-09-07T15:53:05.123Z,9.60
2022-09-07T15:58:13.737Z,7.80
2022-09-07T16:03:21.184Z,9.40
2022-09-07T16:08:32.806Z,11.10
2022-09-07T16:13:40.280Z,7.30
2022-09-07T16:18:47.392Z,9.10
2022-09-07T16:23:55.864Z,8.60
2022-09-07T16:29:02.674Z,10.80
2022-09-07T16:34:12.862Z,7.90
2022-09-07T16:39:20.836Z,11.20
2022-09-07T16:44:27.979Z,7.90
2022-09-07T16:49:34.867Z,8.70
2022-09-07T16:54:41.866Z,8.90
2022-09-07T16:59:49.664Z,8.10
2022-09-07T17:04:56.771Z,9.30
2022-09-07T17:10:04.264Z,9.20
2022-09-07T17:15:13.495Z,10.20
2022-09-07T17:20:20.734Z,9.00
2022-09-07T17:25:28.369Z,11.80
2022-09-07T17:30:39.370Z,12.00
2022-09-07T17:35:46.218Z,9.00
2022-09-07T17:40:53.037Z,12.60
2022-09-07T17:46:05.583Z,10.90
2022-09-07T17:55:18.498Z,13.40
2022-09-07T18:00:25.772Z,11.90
2022-09-07T18:05:34.370Z,10.90
2022-09-07T18:16:15.813Z,10.20
2022-09-07T18:21:25.621Z,12.00
2022-09-07T18:26:32.993Z,12.10
2022-09-07T18:31:40.037Z,12.10
2022-09-07T18:36:46.932Z,10.10
2022-09-07T18:41:55.022Z,10.60
2022-09-07T18:47:02.516Z,11.30
2022-09-07T18:57:38.521Z,11.60
2022-09-07T19:02:47.504Z,11.60
2022-09-07T19:07:57.730Z,9.60
2022-09-07T19:13:04.915Z,12.40
2022-09-07T19:18:12.347Z,12.40
2022-09-07T19:23:19.244Z,14.80
2022-09-07T19:28:26.246Z,14.20
2022-09-07T19:33:33.652Z,12.50
2022-09-07T19:38:40.953Z,12.50
2022-09-07T19:43:48.493Z,13.80
2022-09-07T19:48:57.493Z,12.60
2022-09-07T19:54:04.335Z,14.20
2022-09-07T19:59:11.905Z,12.90
2022-09-07T20:04:20.646Z,16.30
2022-09-07T20:09:27.947Z,13.90
2022-09-07T20:14:35.156Z,16.20
2022-09-07T20:19:42.033Z,13.90
2022-09-07T20:24:48.844Z,16.30
2022-09-07T20:29:56.235Z,13.40
2022-09-07T20:35:03.347Z,11.30
2022-09-07T20:40:11.668Z,10.50
2022-09-07T20:45:18.849Z,13.70
2022-09-07T20:50:25.742Z,14.80
2022-09-07T20:55:32.943Z,12.20
2022-09-07T21:00:40.438Z,14.40
2022-09-07T21:05:47.349Z,11.30
2022-09-07T21:10:55.003Z,11.40
2022-09-07T21:16:06.368Z,11.70
2022-09-07T21:21:20.960Z,15.70
2022-09-07T21:26:28.653Z,12.00
2022-09-07T21:31:35.977Z,10.50
2022-09-07T21:36:42.778Z,10.80
2022-09-07T21:41:49.699Z,11.00
2022-09-07T21:46:56.487Z,11.70
2022-09-07T21:53:46.021Z,11.40
2022-09-07T21:58:56.620Z,14.40
2022-09-07T22:04:07.021Z,15.00
2022-09-07T22:09:13.988Z,16.10
2022-09-07T22:14:21.273Z,12.00
2022-09-07T22:19:28.263Z,12.60
2022-09-07T22:24:35.094Z,12.80
2022-09-07T22:29:42.051Z,9.80
2022-09-07T22:34:49.343Z,12.60
2022-09-07T22:39:56.264Z,10.20
2022-09-07T22:45:03.238Z,9.80
2022-09-07T22:50:11.732Z,11.90
2022-09-07T22:55:18.975Z,10.90
2022-09-07T23:00:25.930Z,9.60
2022-09-07T23:05:36.917Z,11.40
2022-09-07T23:10:43.919Z,11.70
2022-09-07T23:15:51.104Z,11.00
2022-09-07T23:21:01.735Z,11.00
2022-09-07T23:26:09.157Z,11.90
2022-09-07T23:31:15.926Z,12.20
2022-09-07T23:36:23.305Z,12.30
2022-09-07T23:41:30.052Z,13.70
2022-09-07T23:46:36.863Z,13.40
2022-09-07T23:55:32.308Z,11.70
